createdAt,value
2018-06-22T00:01:56.647Z,85.13
2018-06-22T00:04:25.423Z,85.16
2018-06-22T00:06:54.231Z,85.74
2018-06-22T00:09:23.052Z,86.30
2018-06-22T00:11:51.888Z,86.06
2018-06-22T00:14:20.674Z,86.29
2018-06-22T00:16:49.504Z,85.33
2018-06-22T00:19:18.308Z,85.25
2018-06-22T00:21:47.184Z,84.81
2018-06-22T00:24:15.955Z,85.09
2018-06-22T00:26:44.759Z,85.70
2018-06-22T00:29:13.570Z,85.77
2018-06-22T00:31:43.363Z,85.45
2018-06-22T00:34:12.246Z,85.20
2018-06-22T00:36:41.325Z,85.66
2018-06-22T00:39:11.418Z,85.62
2018-06-22T00:41:40.576Z,85.64
2018-06-22T00:44:09.445Z,84.90
2018-06-22T00:46:38.456Z,85.40
2018-06-22T00:49:07.232Z,85.86
2018-06-22T00:51:36.008Z,85.18
2018-06-22T00:54:11.696Z,86.25
2018-06-22T00:56:40.519Z,85.44
2018-06-22T00:59:09.616Z,85.72
2018-06-22T01:01:40.208Z,86.16
2018-06-22T01:04:09.854Z,85.67
2018-06-22T01:06:38.643Z,85.65
2018-06-22T01:09:12.049Z,85.83
2018-06-22T01:11:40.822Z,86.34
2018-06-22T01:14:09.822Z,86.38
2018-06-22T01:16:38.719Z,86.29
2018-06-22T01:19:08.532Z,85.92
2018-06-22T01:21:37.416Z,86.06
2018-06-22T01:24:06.625Z,86.07
2018-06-22T01:26:35.397Z,86.40
2018-06-22T01:29:09.705Z,86.01
2018-06-22T01:31:38.513Z,86.11
2018-06-22T01:34:07.336Z,85.96
2018-06-22T01:36:36.120Z,85.64
2018-06-22T01:39:07.864Z,85.60
2018-06-22T01:41:36.648Z,85.84
2018-06-22T01:44:05.538Z,85.54
2018-06-22T01:46:34.974Z,85.40
2018-06-22T01:49:03.737Z,85.28
2018-06-22T01:51:32.662Z,85.31
2018-06-22T01:54:01.673Z,86.04
2018-06-22T01:56:30.895Z,85.45
2018-06-22T01:58:59.737Z,86.47
2018-06-22T02:01:28.534Z,86.05
2018-06-22T02:03:57.295Z,85.84
2018-06-22T02:06:26.092Z,86.37
2018-06-22T02:08:54.900Z,86.51
2018-06-22T02:11:23.727Z,86.34
2018-06-22T02:13:52.494Z,85.98
2018-06-22T02:16:21.280Z,85.82
2018-06-22T02:18:50.031Z,85.47
2018-06-22T02:21:18.887Z,86.10
2018-06-22T02:23:47.945Z,86.02
2018-06-22T02:26:17.076Z,86.23
2018-06-22T02:28:45.863Z,86.54
2018-06-22T02:31:14.672Z,86.51
2018-06-22T02:33:43.488Z,86.36
2018-06-22T02:36:12.143Z,86.30
2018-06-22T02:38:40.888Z,86.50
2018-06-22T02:41:09.704Z,85.74
2018-06-22T02:43:38.509Z,86.04
2018-06-22T02:46:07.389Z,86.39
2018-06-22T02:48:36.166Z,85.55
2018-06-22T02:51:05.313Z,85.80
2018-06-22T02:53:33.924Z,86.03
2018-06-22T02:56:02.708Z,85.61
2018-06-22T02:58:31.566Z,85.80
2018-06-22T03:01:00.309Z,85.48
2018-06-22T03:03:29.127Z,85.78
2018-06-22T03:05:58.243Z,85.79
2018-06-22T03:08:26.910Z,85.83
2018-06-22T03:10:55.753Z,85.54
2018-06-22T03:13:24.579Z,85.05
2018-06-22T03:15:53.375Z,85.37
2018-06-22T03:18:22.516Z,85.73
2018-06-22T03:20:51.133Z,85.79
2018-06-22T03:23:20.032Z,86.05
2018-06-22T03:25:48.821Z,86.70
2018-06-22T03:28:17.967Z,86.69
2018-06-22T03:30:46.749Z,86.26
2018-06-22T03:33:15.564Z,87.04
2018-06-22T03:35:44.436Z,86.81
2018-06-22T03:38:13.563Z,86.42
2018-06-22T03:40:42.343Z,86.81
2018-06-22T03:43:11.189Z,86.99
2018-06-22T03:45:45.843Z,86.15
2018-06-22T03:48:14.713Z,86.26
2018-06-22T03:50:43.473Z,85.94
2018-06-22T03:53:12.280Z,86.59
2018-06-22T03:55:41.104Z,86.10
2018-06-22T03:58:10.095Z,86.66
2018-06-22T04:00:38.970Z,86.30
2018-06-22T04:03:07.749Z,85.67
2018-06-22T04:05:36.584Z,85.83
2018-06-22T04:08:05.679Z,85.83
2018-06-22T04:10:34.500Z,86.28
2018-06-22T04:13:03.798Z,86.58
2018-06-22T04:15:32.621Z,87.16
2018-06-22T04:18:01.371Z,86.87
2018-06-22T04:20:30.228Z,87.17
2018-06-22T04:22:58.987Z,87.71
2018-06-22T04:25:27.671Z,87.41
2018-06-22T04:27:56.789Z,87.71
2018-06-22T04:30:25.609Z,87.51
2018-06-22T04:32:54.392Z,87.57
2018-06-22T04:35:23.050Z,87.99
2018-06-22T04:37:51.904Z,88.25
2018-06-22T04:40:20.733Z,88.87
2018-06-22T04:42:49.493Z,88.56
2018-06-22T04:45:25.552Z,88.65
2018-06-22T04:47:54.200Z,89.10
2018-06-22T04:50:22.838Z,88.85
2018-06-22T04:52:51.626Z,89.19
2018-06-22T04:55:20.403Z,88.96
2018-06-22T04:57:49.151Z,88.34
2018-06-22T05:00:18.052Z,86.47
2018-06-22T05:02:46.638Z,85.76
2018-06-22T05:05:15.283Z,86.41
2018-06-22T05:07:44.007Z,86.89
2018-06-22T05:10:12.975Z,87.89
2018-06-22T05:12:41.955Z,87.91
2018-06-22T05:15:10.711Z,87.58
2018-06-22T05:17:39.503Z,87.88
2018-06-22T05:20:08.264Z,86.40
2018-06-22T05:22:36.977Z,86.02
2018-06-22T05:25:05.962Z,86.28
2018-06-22T05:27:35.711Z,86.79
2018-06-22T05:30:04.571Z,86.23
2018-06-22T05:32:33.923Z,86.35
2018-06-22T05:35:02.673Z,86.29
2018-06-22T05:37:31.531Z,86.58
2018-06-22T05:40:00.117Z,86.13
2018-06-22T05:42:29.177Z,86.85
2018-06-22T05:44:57.991Z,86.98
2018-06-22T05:47:26.824Z,86.46
2018-06-22T05:49:55.640Z,86.46
2018-06-22T05:52:24.388Z,86.64
2018-06-22T05:54:53.199Z,86.99
2018-06-22T05:57:21.942Z,86.32
2018-06-22T05:59:51.108Z,86.45
2018-06-22T06:02:19.759Z,85.97
2018-06-22T06:04:49.163Z,85.87
2018-06-22T06:07:17.923Z,85.60
2018-06-22T06:09:46.748Z,86.06
2018-06-22T06:12:16.520Z,85.44
2018-06-22T06:14:45.388Z,85.69
2018-06-22T06:17:14.153Z,85.22
2018-06-22T06:19:42.955Z,84.99
2018-06-22T06:22:11.712Z,83.95
2018-06-22T06:24:40.954Z,83.97
2018-06-22T06:27:09.818Z,84.46
2018-06-22T06:29:38.649Z,83.75
2018-06-22T06:32:07.535Z,82.17
2018-06-22T06:34:36.325Z,83.95
2018-06-22T06:37:05.089Z,82.07
2018-06-22T06:39:33.983Z,82.38
2018-06-22T06:42:08.544Z,82.05
2018-06-22T06:44:37.482Z,82.69
2018-06-22T06:47:06.734Z,81.31
2018-06-22T06:49:35.648Z,81.37
2018-06-22T06:52:04.503Z,80.86
2018-06-22T06:54:33.254Z,80.71
2018-06-22T06:57:02.788Z,80.63
2018-06-22T06:59:31.815Z,82.45
2018-06-22T07:02:00.725Z,82.40
2018-06-22T07:04:29.322Z,83.03
2018-06-22T07:06:57.995Z,83.07
2018-06-22T07:09:26.844Z,83.16
2018-06-22T07:11:55.739Z,82.09
2018-06-22T07:14:24.715Z,78.36
2018-06-22T07:16:53.665Z,78.46
2018-06-22T07:19:22.411Z,77.21
2018-06-22T07:21:51.170Z,75.03
2018-06-22T07:24:20.315Z,73.88
2018-06-22T07:26:49.123Z,72.09
2018-06-22T07:29:17.878Z,72.64
2018-06-22T07:31:46.929Z,72.24
2018-06-22T07:34:15.686Z,74.23
2018-06-22T07:36:44.442Z,74.33
2018-06-22T07:39:13.459Z,76.80
2018-06-22T07:41:42.216Z,77.40
2018-06-22T07:44:11.273Z,78.35
2018-06-22T07:46:40.661Z,80.18
2018-06-22T07:49:09.417Z,79.22
2018-06-22T07:51:38.215Z,79.99
2018-06-22T07:54:07.306Z,79.08
2018-06-22T07:56:36.080Z,79.47
2018-06-22T07:59:04.867Z,76.26
2018-06-22T08:01:34.008Z,75.92
2018-06-22T08:04:02.922Z,73.40
2018-06-22T08:06:31.815Z,71.61
2018-06-22T08:09:00.769Z,70.68
2018-06-22T08:11:29.685Z,69.73
2018-06-22T08:13:58.450Z,69.86
2018-06-22T08:16:27.582Z,66.88
2018-06-22T08:18:56.340Z,68.01
2018-06-22T08:21:25.105Z,66.04
2018-06-22T08:23:54.241Z,63.79
2018-06-22T08:26:23.001Z,63.27
2018-06-22T08:28:51.808Z,65.00
2018-06-22T08:31:20.769Z,68.35
2018-06-22T08:33:49.549Z,66.53
2018-06-22T08:36:18.137Z,66.39
2018-06-22T08:38:47.378Z,67.11
2018-06-22T08:41:16.257Z,67.72
2018-06-22T08:43:45.032Z,65.87
2018-06-22T08:46:14.321Z,66.06
2018-06-22T08:48:43.084Z,63.80
2018-06-22T08:51:11.848Z,61.93
2018-06-22T08:53:41.146Z,62.13
2018-06-22T08:56:10.151Z,62.06
2018-06-22T08:58:38.936Z,58.84
2018-06-22T09:01:08.239Z,57.76
2018-06-22T09:03:37.012Z,58.39
2018-06-22T09:06:05.706Z,60.74
2018-06-22T09:08:34.718Z,56.70
2018-06-22T09:11:03.535Z,56.23
2018-06-22T09:13:32.138Z,57.15
2018-06-22T09:16:00.927Z,56.97
2018-06-22T09:18:29.731Z,55.87
2018-06-22T09:20:58.524Z,56.35
2018-06-22T09:23:27.275Z,61.03
2018-06-22T09:25:56.095Z,66.79
2018-06-22T09:28:24.835Z,69.18
2018-06-22T09:30:53.693Z,69.42
2018-06-22T09:33:22.447Z,65.97
2018-06-22T09:35:51.129Z,63.44
2018-06-22T09:38:19.716Z,61.87
2018-06-22T09:40:48.348Z,59.93
2018-06-22T09:43:17.199Z,59.52
2018-06-22T09:45:52.119Z,57.64
2018-06-22T09:48:20.757Z,54.69
2018-06-22T09:50:49.546Z,54.79
2018-06-22T09:53:18.178Z,55.35
2018-06-22T09:55:47.295Z,55.16
2018-06-22T09:58:15.873Z,52.77
2018-06-22T10:00:51.526Z,53.25
2018-06-22T10:03:22.264Z,52.97
2018-06-22T10:05:51.117Z,53.29
2018-06-22T10:08:19.893Z,54.04
2018-06-22T10:10:48.688Z,54.01
2018-06-22T10:13:17.436Z,54.82
2018-06-22T10:15:50.486Z,56.95
2018-06-22T10:18:19.235Z,57.72
2018-06-22T10:20:48.035Z,58.74
2018-06-22T10:23:16.780Z,58.99
2018-06-22T10:25:45.611Z,57.20
2018-06-22T10:28:14.266Z,55.16
2018-06-22T10:30:43.088Z,55.38
2018-06-22T10:33:11.976Z,55.22
2018-06-22T10:35:40.838Z,55.96
2018-06-22T10:38:09.637Z,54.45
2018-06-22T10:40:38.962Z,52.16
2018-06-22T10:43:08.128Z,51.79
2018-06-22T10:45:42.931Z,53.66
2018-06-22T10:48:11.802Z,53.06
2018-06-22T10:50:40.643Z,52.54
2018-06-22T10:53:09.488Z,53.54
2018-06-22T10:55:38.301Z,52.56
2018-06-22T10:58:07.231Z,50.95
2018-06-22T11:00:36.045Z,50.76
2018-06-22T11:03:05.158Z,52.63
2018-06-22T11:05:33.960Z,52.33
2018-06-22T11:08:02.816Z,52.59
2018-06-22T11:10:31.580Z,53.52
2018-06-22T11:13:00.392Z,52.00
2018-06-22T11:15:29.238Z,52.27
2018-06-22T11:17:58.047Z,52.30
2018-06-22T11:20:26.811Z,50.91
2018-06-22T11:22:55.579Z,51.21
2018-06-22T11:25:24.402Z,51.68
2018-06-22T11:27:53.246Z,51.87
2018-06-22T11:30:22.141Z,52.29
2018-06-22T11:32:50.932Z,51.15
2018-06-22T11:35:19.739Z,53.01
2018-06-22T11:37:48.528Z,53.63
2018-06-22T11:40:17.456Z,52.70
2018-06-22T11:42:46.363Z,52.21
2018-06-22T11:45:21.205Z,51.36
2018-06-22T11:47:49.996Z,49.11
2018-06-22T11:50:18.922Z,47.80
2018-06-22T11:52:47.690Z,48.44
2018-06-22T11:55:16.499Z,48.33
2018-06-22T11:57:45.247Z,49.12
2018-06-22T12:00:14.072Z,47.25
2018-06-22T12:02:42.897Z,48.55
2018-06-22T12:05:11.786Z,48.68
2018-06-22T12:07:40.572Z,48.88
2018-06-22T12:10:09.398Z,48.94
2018-06-22T12:12:38.248Z,49.63
2018-06-22T12:15:07.152Z,50.26
2018-06-22T12:17:35.923Z,51.75
2018-06-22T12:20:04.796Z,50.38
2018-06-22T12:22:33.569Z,50.90
2018-06-22T12:25:02.423Z,52.07
2018-06-22T12:27:31.299Z,53.58
2018-06-22T12:30:00.102Z,54.11
2018-06-22T12:32:28.971Z,53.37
2018-06-22T12:34:57.755Z,54.26
2018-06-22T12:37:26.580Z,55.44
2018-06-22T12:39:55.424Z,57.49
2018-06-22T12:42:24.231Z,58.12
2018-06-22T12:44:53.067Z,57.63
2018-06-22T12:47:21.899Z,56.58
2018-06-22T12:49:50.780Z,54.21
2018-06-22T12:52:19.497Z,53.69
2018-06-22T12:54:48.359Z,53.44
2018-06-22T12:57:17.205Z,50.84
2018-06-22T12:59:45.836Z,50.59
2018-06-22T13:02:14.627Z,51.23
2018-06-22T13:04:43.763Z,51.37
2018-06-22T13:07:12.895Z,52.25
2018-06-22T13:09:42.020Z,53.39
2018-06-22T13:12:10.847Z,55.46
2018-06-22T13:14:39.616Z,59.19
2018-06-22T13:17:08.557Z,59.07
2018-06-22T13:19:37.157Z,59.94
2018-06-22T13:22:06.124Z,59.21
2018-06-22T13:24:34.749Z,57.83
2018-06-22T13:27:03.607Z,55.88
2018-06-22T13:29:32.485Z,54.50
2018-06-22T13:32:01.271Z,54.44
2018-06-22T13:34:30.152Z,54.94
2018-06-22T13:36:58.815Z,55.16
2018-06-22T13:39:27.664Z,55.73
2018-06-22T13:41:56.526Z,56.19
2018-06-22T13:44:25.339Z,55.39
2018-06-22T13:46:54.018Z,53.28
2018-06-22T13:49:22.846Z,52.48
2018-06-22T13:51:51.639Z,52.78
2018-06-22T13:54:20.496Z,52.69
2018-06-22T13:56:49.161Z,53.39
2018-06-22T13:59:17.922Z,52.50
2018-06-22T14:01:46.726Z,52.47
2018-06-22T14:04:21.412Z,52.84
2018-06-22T14:06:52.813Z,50.77
2018-06-22T14:09:22.073Z,48.92
2018-06-22T14:11:50.816Z,49.04
2018-06-22T14:14:19.713Z,48.39
2018-06-22T14:16:48.509Z,50.13
2018-06-22T14:19:17.429Z,49.84
2018-06-22T14:21:46.242Z,51.08
2018-06-22T14:24:15.444Z,55.33
2018-06-22T14:26:44.212Z,57.20
2018-06-22T14:29:13.004Z,58.30
2018-06-22T14:31:41.912Z,58.46
2018-06-22T14:34:10.720Z,58.77
2018-06-22T14:36:39.579Z,58.01
2018-06-22T14:39:08.929Z,56.50
2018-06-22T14:41:37.762Z,56.14
2018-06-22T14:44:06.623Z,55.84
2018-06-22T14:46:35.583Z,54.67
2018-06-22T14:49:04.916Z,54.89
2018-06-22T14:51:33.791Z,55.67
2018-06-22T14:54:08.056Z,56.20
2018-06-22T14:56:42.497Z,55.70
2018-06-22T14:59:16.741Z,54.36
2018-06-22T15:01:51.029Z,52.75
2018-06-22T15:04:25.444Z,50.39
2018-06-22T15:07:00.047Z,50.53
2018-06-22T15:09:28.692Z,52.02
2018-06-22T15:11:57.544Z,53.44
2018-06-22T15:14:26.365Z,53.12
2018-06-22T15:16:55.121Z,52.62
2018-06-22T15:19:23.917Z,52.49
2018-06-22T15:21:53.060Z,50.05
2018-06-22T15:24:22.205Z,49.28
2018-06-22T15:26:50.865Z,49.40
2018-06-22T15:29:19.713Z,49.46
2018-06-22T15:31:48.520Z,48.57
2018-06-22T15:34:22.852Z,49.16
2018-06-22T15:36:57.302Z,48.17
2018-06-22T15:39:31.635Z,48.90
2018-06-22T15:42:05.995Z,49.28
2018-06-22T15:44:40.290Z,48.83
2018-06-22T15:47:14.704Z,49.02
2018-06-22T15:49:49.136Z,48.80
2018-06-22T15:52:23.515Z,49.44
2018-06-22T15:54:57.693Z,50.88
2018-06-22T15:57:26.616Z,50.94
2018-06-22T15:59:55.686Z,52.09
2018-06-22T16:02:30.457Z,53.26
2018-06-22T16:04:59.229Z,54.31
2018-06-22T16:07:28.081Z,54.75
2018-06-22T16:10:00.895Z,55.43
2018-06-22T16:12:33.043Z,56.07
2018-06-22T16:15:07.392Z,56.22
2018-06-22T16:17:41.888Z,55.71
2018-06-22T16:20:16.007Z,55.06
2018-06-22T16:22:50.430Z,54.25
2018-06-22T16:25:24.655Z,55.11
2018-06-22T16:27:55.259Z,55.24
2018-06-22T16:30:24.845Z,55.92
2018-06-22T16:32:53.451Z,57.67
2018-06-22T16:35:22.647Z,57.95
2018-06-22T16:37:52.015Z,58.48
2018-06-22T16:40:20.916Z,57.36
2018-06-22T16:42:50.400Z,57.20
2018-06-22T16:45:25.400Z,57.92
2018-06-22T16:47:54.204Z,57.22
2018-06-22T16:50:23.060Z,57.49
2018-06-22T16:52:51.885Z,57.45
2018-06-22T16:55:21.024Z,55.89
2018-06-22T16:57:49.839Z,55.13
2018-06-22T17:00:18.687Z,53.51
2018-06-22T17:02:48.612Z,53.57
2018-06-22T17:05:17.603Z,52.71
2018-06-22T17:08:51.695Z,54.57
2018-06-22T17:11:26.122Z,55.29
2018-06-22T17:14:00.666Z,55.27
2018-06-22T17:16:35.132Z,55.23
2018-06-22T17:19:04.112Z,56.16
2018-06-22T17:21:32.726Z,56.31
2018-06-22T17:24:01.745Z,55.45
2018-06-22T17:26:30.783Z,55.87
2018-06-22T17:28:59.385Z,55.12
2018-06-22T17:31:29.140Z,54.51
2018-06-22T17:33:58.042Z,54.46
2018-06-22T17:36:27.031Z,54.56
2018-06-22T17:38:55.884Z,54.57
2018-06-22T17:41:24.920Z,53.50
2018-06-22T17:43:53.927Z,52.99
2018-06-22T17:46:23.242Z,53.86
2018-06-22T17:48:52.351Z,54.24
2018-06-22T17:51:21.630Z,55.10
2018-06-22T17:53:50.708Z,55.00
2018-06-22T17:56:25.223Z,56.75
2018-06-22T17:58:59.515Z,56.28
2018-06-22T18:01:34.128Z,56.62
2018-06-22T18:04:09.303Z,56.56
2018-06-22T18:06:43.573Z,55.98
2018-06-22T18:09:17.835Z,55.91
2018-06-22T18:11:52.398Z,56.38
2018-06-22T18:14:21.199Z,57.33
2018-06-22T18:16:50.384Z,58.82
2018-06-22T18:19:19.188Z,59.78
2018-06-22T18:21:48.201Z,60.78
2018-06-22T18:24:16.805Z,62.67
2018-06-22T18:26:45.697Z,64.28
2018-06-22T18:29:14.467Z,65.37
2018-06-22T18:31:43.575Z,66.22
2018-06-22T18:34:12.246Z,67.18
2018-06-22T18:36:43.104Z,68.34
2018-06-22T18:39:12.908Z,68.35
2018-06-22T18:41:41.738Z,67.98
2018-06-22T18:44:16.629Z,68.04
2018-06-22T18:46:46.359Z,68.09
2018-06-22T18:49:16.103Z,68.46
2018-06-22T18:51:45.651Z,68.78
2018-06-22T18:54:20.556Z,68.97
2018-06-22T18:56:55.307Z,68.90
2018-06-22T18:59:30.184Z,69.48
2018-06-22T19:02:05.064Z,69.30
2018-06-22T19:04:33.847Z,68.31
2018-06-22T19:07:02.731Z,68.10
2018-06-22T19:09:31.520Z,68.29
2018-06-22T19:12:01.299Z,68.93
2018-06-22T19:14:30.095Z,68.68
2018-06-22T19:16:58.915Z,68.13
2018-06-22T19:19:27.812Z,68.19
2018-06-22T19:21:57.163Z,68.56
2018-06-22T19:24:25.964Z,68.95
2018-06-22T19:26:54.759Z,68.63
2018-06-22T19:29:23.808Z,68.75
2018-06-22T19:31:52.637Z,68.59
2018-06-22T19:35:25.074Z,68.38
2018-06-22T19:37:54.376Z,68.62
2018-06-22T19:40:23.233Z,67.96
2018-06-22T19:42:52.103Z,67.65
2018-06-22T19:45:32.820Z,67.58
2018-06-22T19:48:07.325Z,68.06
2018-06-22T19:50:41.663Z,68.49
2018-06-22T19:53:16.043Z,68.40
2018-06-22T19:55:44.862Z,67.80
2018-06-22T19:58:13.605Z,67.31
2018-06-22T20:00:42.770Z,67.70
2018-06-22T20:03:11.523Z,68.13
2018-06-22T20:05:40.369Z,67.35
2018-06-22T20:08:09.100Z,67.53
2018-06-22T20:10:39.034Z,67.72
2018-06-22T20:13:07.792Z,67.63
2018-06-22T20:15:37.043Z,68.12
2018-06-22T20:18:06.403Z,69.14
2018-06-22T20:20:35.326Z,69.62
2018-06-22T20:23:04.220Z,70.54
2018-06-22T20:25:38.543Z,70.63
2018-06-22T20:28:07.539Z,70.56
2018-06-22T20:30:36.494Z,71.13
2018-06-22T20:33:05.320Z,71.40
2018-06-22T20:35:39.718Z,71.68
2018-06-22T20:38:14.168Z,70.94
2018-06-22T20:40:48.625Z,71.02
2018-06-22T20:43:22.846Z,70.77
2018-06-22T20:45:54.187Z,71.23
2018-06-22T20:48:28.737Z,71.00
2018-06-22T20:50:57.731Z,71.22
2018-06-22T20:53:26.524Z,71.24
2018-06-22T20:55:55.394Z,70.77
2018-06-22T20:58:24.210Z,71.19
2018-06-22T21:00:53.073Z,71.43
2018-06-22T21:03:21.825Z,71.14
2018-06-22T21:05:50.611Z,70.97
2018-06-22T21:08:19.406Z,71.82
2018-06-22T21:10:48.238Z,71.83
2018-06-22T21:13:16.876Z,71.88
2018-06-22T21:15:45.724Z,73.22
2018-06-22T21:18:14.525Z,73.12
2018-06-22T21:20:48.847Z,73.40
2018-06-22T21:23:17.546Z,73.84
2018-06-22T21:25:46.328Z,73.85
2018-06-22T21:28:20.817Z,74.10
2018-06-22T21:30:54.907Z,74.33
2018-06-22T21:33:29.363Z,73.99
2018-06-22T21:36:03.672Z,74.07
2018-06-22T21:38:37.870Z,74.28
2018-06-22T21:41:06.709Z,74.27
2018-06-22T21:43:35.409Z,73.71
2018-06-22T21:46:04.608Z,73.85
2018-06-22T21:48:33.415Z,73.41
2018-06-22T21:51:02.175Z,73.21
2018-06-22T21:53:31.070Z,73.53
2018-06-22T21:55:59.865Z,73.17
2018-06-22T21:58:28.677Z,72.87
2018-06-22T22:00:57.579Z,72.71
2018-06-22T22:03:26.397Z,73.00
2018-06-22T22:05:55.003Z,72.32
2018-06-22T22:08:23.858Z,72.11
2018-06-22T22:10:58.068Z,72.13
2018-06-22T22:13:26.879Z,72.23
2018-06-22T22:15:55.637Z,72.77
2018-06-22T22:18:24.406Z,72.29
2018-06-22T22:20:53.347Z,72.41
2018-06-22T22:23:22.371Z,72.93
2018-06-22T22:25:51.135Z,72.77
2018-06-22T22:28:19.945Z,72.62
2018-06-22T22:30:48.732Z,72.62
2018-06-22T22:33:17.607Z,72.70
2018-06-22T22:35:46.189Z,72.64
2018-06-22T22:38:14.837Z,72.56
2018-06-22T22:40:43.658Z,72.75
2018-06-22T22:43:12.413Z,72.62
2018-06-22T22:45:47.373Z,72.70
2018-06-22T22:48:16.144Z,72.25
2018-06-22T22:50:44.941Z,72.28
2018-06-22T22:53:13.991Z,72.73
2018-06-22T22:55:42.860Z,72.56
2018-06-22T22:58:11.595Z,72.12
2018-06-22T23:00:40.388Z,72.36
2018-06-22T23:03:09.180Z,71.87
2018-06-22T23:05:38.282Z,72.04
2018-06-22T23:08:07.110Z,71.88
2018-06-22T23:10:36.220Z,71.84
2018-06-22T23:13:05.156Z,72.88
2018-06-22T23:15:34.000Z,72.75
2018-06-22T23:18:02.597Z,71.74
2018-06-22T23:20:31.447Z,71.82
2018-06-22T23:23:17.055Z,71.79
2018-06-22T23:25:45.717Z,72.51
2018-06-22T23:28:14.484Z,71.89
2018-06-22T23:30:43.167Z,71.55
2018-06-22T23:33:11.944Z,72.45
2018-06-22T23:35:40.803Z,72.22
2018-06-22T23:38:09.572Z,72.15
2018-06-22T23:40:38.402Z,72.39
2018-06-22T23:43:07.601Z,72.60
2018-06-22T23:45:42.507Z,72.84
2018-06-22T23:48:11.983Z,72.82
2018-06-22T23:50:41.087Z,72.76
2018-06-22T23:53:10.542Z,72.60
2018-06-22T23:55:39.375Z,72.29
2018-06-22T23:58:08.393Z,72.22
